Aviation Discussion

  

Terminal Aviation Forecasts

AMENDED TAFBWI (View previous versions )
KBWI 210028Z 2100/2206 15007KT P6SM VCTS BKN050CB
      TEMPO 2100/2101 28015G40KT 2SM TSRA BKN030CB
     FM210300 22008KT P6SM -SHRA BKN050
     FM210700 27007KT P6SM BKN045
     FM211100 29011KT P6SM SCT060
     FM211400 27013G22KT P6SM SCT090
     FM220000 26007KT P6SM SCT120=

TAFCHO (View previous versions )
KCHO 201729Z 2018/2118 19012KT P6SM SCT030 BKN250
     FM202100 20011G20KT P6SM -TSRA BKN035CB
     FM210200 22006KT P6SM BKN050
     FM210500 26006KT P6SM SCT050
     FM211100 25004KT P6SM SCT200
     FM211500 26008KT P6SM FEW200=

AMENDED TAFDCA (View previous versions )
KDCA 210458Z 2105/2124 31015KT 4SM -TSRA BKN035CB
     FM210600 27010KT P6SM BKN100
     FM211100 30010KT P6SM SCT060
     FM211400 28012G20KT P6SM SCT090=

AMENDED TAFIAD (View previous versions )
KIAD 202153Z 2022/2124 19013G22KT P6SM VCTS BKN040CB
      TEMPO 2023/2024 20015G30KT 5SM -TSRA BKN050CB
     FM210100 22010KT P6SM BKN050
     FM210800 28008KT P6SM BKN045
     FM211100 28008KT P6SM SCT070
     FM211600 27012KT P6SM FEW250=

AMENDED TAFMRB (View previous versions )
KMRB 202043Z 2021/2118 17012G22KT P6SM VCTS BKN045CB
     FM210100 23007KT P6SM BKN050
     FM210600 27009KT P6SM BKN040
     FM211000 28009KT P6SM SCT080
     FM211500 27013KT P6SM SCT250=

AMENDED TAFMTN (View previous versions )
KMTN 210208Z 2102/2124 15012G20KT P6SM VCTS BKN060CB
      TEMPO 2102/2103 18015G30KT 4SM -TSRA BKN020CB
     FM210300 22008KT P6SM -SHRA BKN050
     FM210700 27007KT P6SM BKN045
     FM211100 29011KT P6SM SCT060
     FM211400 27013G20KT P6SM SCT090
      AMD NOT SKED 2102/2112=


Meteorological Impact Statement

ZDC MIS 02 VALID 202000-210400
...FOR ATC PLANNING PURPOSES ONLY...
LINES/CLUSTERS OF SHRA/TSRA TOPS TO FL400 CONTINUE TO DVLP ACRS 
ZDC...MOV E-NE 30-40KT. SOME SEV STORMS POSS TIL 02Z W/WIND GUSTS TO 
70 KTS AND HAIL TO 2 INCHES. AREAS MOD TURB BLW FL450...ISOL SEV 
TURB FL250-450 AND IN SHRA/TSRA. ISOL SEV ICE 110-FL270 IN TSRA.

Surface Map


TRACON Thunderstorm Forecast


Vertical Wind Profiles